createdAt,value
2019-05-21T00:01:03.221Z,17.17
2019-05-21T00:03:31.615Z,18.63
2019-05-21T00:06:00.307Z,18.50
2019-05-21T00:08:28.211Z,19.73
2019-05-21T00:10:56.136Z,20.00
2019-05-21T00:13:24.726Z,22.53
2019-05-21T00:15:52.661Z,21.77
2019-05-21T00:18:21.201Z,21.90
2019-05-21T00:20:49.825Z,22.53
2019-05-21T00:23:18.605Z,21.93
2019-05-21T00:25:47.255Z,23.57
2019-05-21T00:28:40.305Z,24.03
2019-05-21T00:31:44.849Z,23.47
2019-05-21T00:34:49.351Z,23.30
2019-05-21T00:37:53.525Z,22.13
2019-05-21T00:40:57.043Z,21.80
2019-05-21T00:43:34.928Z,22.43
2019-05-21T00:46:02.459Z,22.23
2019-05-21T00:48:30.086Z,22.00
2019-05-21T00:50:57.939Z,20.83
2019-05-21T00:53:26.766Z,23.60
2019-05-21T00:55:55.030Z,22.83
2019-05-21T00:58:23.275Z,21.87
2019-05-21T01:00:51.543Z,22.10
2019-05-21T01:03:20.042Z,22.10
2019-05-21T01:05:48.296Z,22.07
2019-05-21T01:08:16.914Z,21.27
2019-05-21T01:10:45.466Z,19.73
2019-05-21T01:13:13.782Z,21.07
2019-05-21T01:15:42.379Z,18.40
2019-05-21T01:18:11.853Z,17.50
2019-05-21T01:20:40.515Z,15.67
2019-05-21T01:23:09.060Z,15.37
2019-05-21T01:25:36.947Z,15.23
2019-05-21T01:28:05.221Z,14.77
2019-05-21T01:30:33.434Z,14.27
2019-05-21T01:33:01.385Z,14.87
2019-05-21T01:35:29.682Z,14.90
2019-05-21T01:37:57.946Z,13.43
2019-05-21T01:40:26.450Z,13.67
2019-05-21T01:42:54.761Z,14.57
2019-05-21T01:45:23.086Z,13.10
2019-05-21T01:47:51.379Z,13.83
2019-05-21T01:50:18.833Z,13.00
2019-05-21T01:52:47.081Z,13.77
2019-05-21T01:55:16.016Z,14.17
2019-05-21T01:57:44.289Z,13.80
2019-05-21T02:00:12.981Z,12.80
2019-05-21T02:02:41.480Z,12.53
2019-05-21T02:05:09.511Z,11.90
2019-05-21T02:07:37.751Z,11.50
2019-05-21T02:10:05.757Z,13.10
2019-05-21T02:12:34.509Z,13.10
2019-05-21T02:15:02.801Z,12.43
2019-05-21T02:17:31.007Z,12.30
2019-05-21T02:19:59.315Z,12.37
2019-05-21T02:22:27.585Z,10.77
2019-05-21T02:24:55.474Z,11.03
2019-05-21T02:27:23.369Z,11.97
2019-05-21T02:29:51.505Z,12.43
2019-05-21T02:32:20.144Z,12.40
2019-05-21T02:34:48.681Z,13.23
2019-05-21T02:37:18.754Z,13.40
2019-05-21T02:39:47.444Z,12.20
2019-05-21T02:42:16.063Z,12.50
2019-05-21T02:44:44.030Z,10.60
2019-05-21T02:47:12.398Z,9.33
2019-05-21T02:49:41.896Z,9.37
2019-05-21T02:52:10.580Z,8.07
2019-05-21T02:54:41.687Z,7.70
2019-05-21T02:57:09.002Z,6.50
2019-05-21T02:59:38.368Z,6.93
2019-05-21T03:02:13.051Z,6.13
2019-05-21T03:04:40.591Z,5.47
2019-05-21T03:07:18.155Z,5.40
2019-05-21T03:09:47.854Z,6.40
2019-05-21T03:12:16.675Z,4.37
2019-05-21T03:14:44.960Z,3.93
2019-05-21T03:17:13.280Z,4.07
2019-05-21T03:19:41.813Z,4.67
2019-05-21T03:22:09.795Z,4.73
2019-05-21T03:24:38.073Z,4.83
2019-05-21T03:27:06.408Z,5.40
2019-05-21T03:29:34.346Z,6.00
2019-05-21T03:32:02.769Z,5.60
2019-05-21T03:34:30.632Z,5.47
2019-05-21T03:36:59.111Z,5.87
2019-05-21T03:39:28.147Z,6.57
2019-05-21T03:41:56.031Z,6.93
2019-05-21T03:44:25.174Z,7.60
2019-05-21T03:46:53.650Z,8.10
2019-05-21T03:49:22.838Z,9.33
2019-05-21T03:51:53.012Z,9.10
2019-05-21T03:54:21.726Z,8.00
2019-05-21T03:56:50.017Z,8.27
2019-05-21T03:59:18.077Z,6.90
2019-05-21T04:01:46.317Z,6.37
2019-05-21T04:04:14.430Z,6.03
2019-05-21T04:06:52.149Z,5.70
2019-05-21T04:09:14.981Z,5.77
2019-05-21T04:11:43.844Z,5.80
2019-05-21T04:14:14.347Z,5.70
2019-05-21T04:17:04.891Z,4.97
2019-05-21T04:19:35.778Z,4.60
2019-05-21T04:22:03.672Z,5.07
2019-05-21T04:24:32.029Z,5.70
2019-05-21T04:26:59.957Z,6.70
2019-05-21T04:29:28.963Z,6.70
2019-05-21T04:31:57.685Z,7.73
2019-05-21T04:34:26.041Z,5.93
2019-05-21T04:37:09.435Z,9.67
2019-05-21T04:39:24.233Z,5.73
2019-05-21T04:41:52.188Z,5.33
2019-05-21T04:44:20.097Z,4.77
2019-05-21T04:46:48.598Z,8.13
2019-05-21T04:49:16.194Z,6.00
2019-05-21T04:51:44.860Z,6.30
2019-05-21T04:54:13.262Z,6.43
2019-05-21T04:56:41.532Z,5.33
2019-05-21T04:59:10.238Z,5.13
2019-05-21T05:01:38.468Z,5.87
2019-05-21T05:04:06.336Z,5.17
2019-05-21T05:06:34.545Z,5.00
2019-05-21T05:09:03.033Z,7.20
2019-05-21T05:11:46.335Z,4.50
2019-05-21T05:14:13.936Z,3.90
2019-05-21T05:16:42.860Z,3.80
2019-05-21T05:19:11.811Z,4.77
2019-05-21T05:21:39.742Z,3.53
2019-05-21T05:24:18.595Z,3.60
2019-05-21T05:26:46.788Z,3.67
2019-05-21T05:29:15.581Z,4.87
2019-05-21T05:31:43.853Z,4.70
2019-05-21T05:34:12.652Z,3.77
2019-05-21T05:36:40.891Z,3.37
2019-05-21T05:39:10.223Z,3.63
2019-05-21T05:41:44.240Z,4.10
2019-05-21T05:44:14.027Z,4.23
2019-05-21T05:46:43.067Z,4.50
2019-05-21T05:49:17.180Z,3.57
2019-05-21T05:51:45.966Z,3.67
2019-05-21T05:54:14.263Z,6.30
2019-05-21T05:56:42.378Z,3.70
2019-05-21T05:59:14.026Z,4.67
2019-05-21T06:01:41.312Z,3.10
2019-05-21T06:04:10.227Z,4.63
2019-05-21T06:06:38.193Z,4.67
2019-05-21T06:09:09.932Z,3.00
2019-05-21T06:11:38.464Z,3.80
2019-05-21T06:14:07.058Z,2.23
2019-05-21T06:16:35.321Z,2.60
2019-05-21T06:19:03.239Z,3.20
2019-05-21T06:21:31.731Z,3.80
2019-05-21T06:23:59.966Z,2.93
2019-05-21T06:26:28.751Z,2.60
2019-05-21T06:28:57.052Z,2.57
2019-05-21T06:31:25.668Z,3.30
2019-05-21T06:33:53.322Z,2.30
2019-05-21T06:36:21.674Z,2.53
2019-05-21T06:38:50.163Z,1.40
2019-05-21T06:41:18.871Z,2.00
2019-05-21T06:43:46.856Z,1.57
2019-05-21T06:46:14.843Z,1.67
2019-05-21T06:48:43.007Z,1.90
2019-05-21T06:51:11.650Z,1.50
2019-05-21T06:53:40.120Z,1.23
2019-05-21T06:56:08.880Z,2.00
2019-05-21T06:58:37.172Z,1.70
2019-05-21T07:01:06.164Z,1.70
2019-05-21T07:03:34.965Z,1.80
2019-05-21T07:06:02.525Z,1.30
2019-05-21T07:08:34.834Z,2.03
2019-05-21T07:11:01.015Z,1.20
2019-05-21T07:13:31.123Z,1.10
2019-05-21T07:15:59.917Z,1.23
2019-05-21T07:18:32.222Z,1.40
2019-05-21T07:21:04.592Z,1.20
2019-05-21T07:23:33.189Z,1.70
2019-05-21T07:26:01.132Z,1.30
2019-05-21T07:28:29.953Z,1.30
2019-05-21T07:30:58.736Z,1.20
2019-05-21T07:33:27.020Z,1.47
2019-05-21T07:35:54.984Z,1.13
2019-05-21T07:38:22.563Z,1.27
2019-05-21T07:40:53.777Z,3.00
2019-05-21T07:43:24.654Z,1.30
2019-05-21T07:45:52.811Z,1.17
2019-05-21T07:48:21.528Z,0.83
2019-05-21T07:50:54.770Z,1.00
2019-05-21T07:53:23.203Z,0.80
2019-05-21T07:55:53.497Z,1.03
2019-05-21T07:58:21.566Z,1.10
2019-05-21T08:00:50.228Z,1.20
2019-05-21T08:03:17.515Z,1.30
2019-05-21T08:05:45.335Z,0.80
2019-05-21T08:08:15.367Z,0.97
2019-05-21T08:10:43.858Z,1.10
2019-05-21T08:13:15.726Z,0.80
2019-05-21T08:15:45.558Z,0.70
2019-05-21T08:18:13.822Z,1.00
2019-05-21T08:20:41.430Z,0.90
2019-05-21T08:23:09.959Z,1.20
2019-05-21T08:25:40.961Z,0.97
2019-05-21T08:28:08.669Z,1.20
2019-05-21T08:30:37.536Z,1.30
2019-05-21T08:33:05.428Z,1.40
2019-05-21T08:35:33.712Z,1.87
2019-05-21T08:38:01.985Z,1.80
2019-05-21T08:40:29.533Z,1.00
2019-05-21T08:42:58.272Z,1.50
2019-05-21T08:45:27.045Z,1.23
2019-05-21T08:47:55.307Z,1.17
2019-05-21T08:50:26.101Z,1.53
2019-05-21T08:52:54.341Z,1.10
2019-05-21T08:55:22.536Z,0.93
2019-05-21T08:58:06.246Z,0.97
2019-05-21T09:00:21.861Z,1.13
2019-05-21T09:02:50.458Z,1.40
2019-05-21T09:05:19.270Z,1.07
2019-05-21T09:07:52.946Z,1.20
2019-05-21T09:10:18.667Z,1.10
2019-05-21T09:12:46.946Z,1.10
2019-05-21T09:15:16.047Z,0.90
2019-05-21T09:17:44.661Z,1.40
2019-05-21T09:20:13.835Z,1.43
2019-05-21T09:22:41.802Z,1.10
2019-05-21T09:25:10.085Z,1.40
2019-05-21T09:27:37.639Z,1.60
2019-05-21T09:30:06.701Z,1.40
2019-05-21T09:32:34.956Z,2.30
2019-05-21T09:35:02.833Z,1.60
2019-05-21T09:37:31.011Z,1.80
2019-05-21T09:39:59.252Z,1.70
2019-05-21T09:42:27.485Z,2.70
2019-05-21T09:44:56.051Z,1.17
2019-05-21T09:47:24.359Z,1.40
2019-05-21T09:49:53.077Z,0.93
2019-05-21T09:52:21.271Z,1.57
2019-05-21T09:54:49.661Z,1.23
2019-05-21T09:57:23.170Z,0.90
2019-05-21T09:59:59.710Z,0.90
2019-05-21T10:02:29.678Z,0.90
2019-05-21T10:04:57.548Z,1.10
2019-05-21T10:07:39.114Z,0.83
2019-05-21T10:09:56.259Z,1.03
2019-05-21T10:12:24.681Z,1.67
2019-05-21T10:14:52.976Z,1.10
2019-05-21T10:17:20.904Z,1.10
2019-05-21T10:19:48.885Z,1.20
2019-05-21T10:22:17.156Z,1.10
2019-05-21T10:24:46.079Z,1.20
2019-05-21T10:27:14.083Z,1.30
2019-05-21T10:29:42.027Z,1.07
2019-05-21T10:32:10.372Z,1.10
2019-05-21T10:34:41.141Z,1.10
2019-05-21T10:37:09.832Z,1.07
2019-05-21T10:39:38.076Z,1.17
2019-05-21T10:42:06.103Z,1.00
2019-05-21T10:44:34.660Z,0.90
2019-05-21T10:47:03.370Z,1.03
2019-05-21T10:49:32.440Z,1.10
2019-05-21T10:52:00.451Z,1.50
2019-05-21T10:54:28.812Z,1.20
2019-05-21T10:56:57.126Z,1.37
2019-05-21T10:59:25.709Z,1.40
2019-05-21T11:02:16.410Z,1.60
2019-05-21T11:05:01.678Z,1.17
2019-05-21T11:07:30.089Z,1.30
2019-05-21T11:09:58.070Z,1.77
2019-05-21T11:12:26.320Z,1.40
2019-05-21T11:14:54.304Z,1.63
2019-05-21T11:17:22.680Z,2.07
2019-05-21T11:19:51.003Z,1.30
2019-05-21T11:22:19.593Z,1.83
2019-05-21T11:24:47.818Z,2.27
2019-05-21T11:27:16.111Z,2.50
2019-05-21T11:29:44.372Z,1.30
2019-05-21T11:32:11.953Z,1.77
2019-05-21T11:34:40.237Z,1.70
2019-05-21T11:37:08.525Z,1.63
2019-05-21T11:39:36.778Z,2.80
2019-05-21T11:42:05.338Z,3.50
2019-05-21T11:44:33.395Z,3.10
2019-05-21T11:47:02.256Z,1.90
2019-05-21T11:49:30.321Z,2.00
2019-05-21T11:51:58.596Z,4.20
2019-05-21T11:54:26.164Z,4.00
2019-05-21T11:56:54.463Z,2.47
2019-05-21T11:59:24.069Z,2.60
2019-05-21T12:01:52.288Z,1.83
2019-05-21T12:04:20.624Z,1.67
2019-05-21T12:06:49.203Z,1.83
2019-05-21T12:09:17.091Z,1.40
2019-05-21T12:11:45.021Z,1.40
2019-05-21T12:14:13.226Z,2.20
2019-05-21T12:16:41.482Z,3.60
2019-05-21T12:19:09.714Z,1.23
2019-05-21T12:21:38.111Z,1.30
2019-05-21T12:24:06.395Z,2.67
2019-05-21T12:26:34.642Z,3.50
2019-05-21T12:29:02.556Z,1.20
2019-05-21T12:31:31.953Z,1.60
2019-05-21T12:34:00.002Z,3.30
2019-05-21T12:36:28.284Z,1.90
2019-05-21T12:39:11.554Z,2.80
2019-05-21T12:41:27.338Z,7.73
2019-05-21T12:43:55.728Z,8.57
2019-05-21T12:46:23.990Z,8.93
2019-05-21T12:48:52.057Z,4.03
2019-05-21T12:51:20.331Z,2.40
2019-05-21T12:53:49.187Z,4.37
2019-05-21T12:56:17.632Z,2.20
2019-05-21T12:58:46.018Z,1.97
2019-05-21T13:01:14.295Z,1.70
2019-05-21T13:03:42.893Z,4.73
2019-05-21T13:06:10.514Z,2.10
2019-05-21T13:08:38.848Z,2.40
2019-05-21T13:11:07.222Z,2.00
2019-05-21T13:13:35.496Z,2.33
2019-05-21T13:16:03.326Z,2.37
2019-05-21T13:18:30.895Z,2.30
2019-05-21T13:20:58.902Z,2.17
2019-05-21T13:23:27.033Z,3.13
2019-05-21T13:25:55.272Z,3.30
2019-05-21T13:28:23.667Z,3.80
2019-05-21T13:30:52.313Z,2.77
2019-05-21T13:33:20.592Z,3.27
2019-05-21T13:35:49.437Z,2.70
2019-05-21T13:38:17.713Z,2.90
2019-05-21T13:40:47.082Z,2.40
2019-05-21T13:43:15.702Z,2.20
2019-05-21T13:45:43.868Z,2.10
2019-05-21T13:48:12.462Z,1.63
2019-05-21T13:50:40.572Z,1.80
2019-05-21T13:53:09.426Z,1.90
2019-05-21T13:55:37.322Z,1.60
2019-05-21T13:58:04.884Z,1.80
2019-05-21T14:00:38.985Z,2.00
2019-05-21T14:03:07.757Z,2.27
2019-05-21T14:05:36.083Z,2.70
2019-05-21T14:08:04.233Z,3.47
2019-05-21T14:10:32.721Z,2.03
2019-05-21T14:13:00.331Z,3.07
2019-05-21T14:15:29.074Z,3.40
2019-05-21T14:17:57.229Z,3.27
2019-05-21T14:20:26.586Z,2.87
2019-05-21T14:22:54.997Z,2.57
2019-05-21T14:25:23.092Z,2.50
2019-05-21T14:27:51.021Z,2.70
2019-05-21T14:30:18.953Z,3.00
2019-05-21T14:32:47.609Z,2.80
2019-05-21T14:35:15.870Z,3.27
2019-05-21T14:37:43.865Z,2.73
2019-05-21T14:40:28.556Z,4.53
2019-05-21T14:42:58.373Z,6.20
2019-05-21T14:45:14.106Z,3.37
2019-05-21T14:47:41.997Z,3.37
2019-05-21T14:50:09.484Z,3.60
2019-05-21T14:52:37.868Z,4.60
2019-05-21T14:55:06.142Z,3.43
2019-05-21T14:57:34.820Z,3.80
2019-05-21T15:00:04.258Z,3.43
2019-05-21T15:02:32.482Z,3.60
2019-05-21T15:05:00.798Z,2.63
2019-05-21T15:07:29.362Z,3.63
2019-05-21T15:09:57.814Z,3.23
2019-05-21T15:12:26.541Z,3.77
2019-05-21T15:14:55.354Z,2.73
2019-05-21T15:17:23.636Z,5.70
2019-05-21T15:19:54.360Z,3.57
2019-05-21T15:22:21.938Z,3.40
2019-05-21T15:24:49.927Z,3.63
2019-05-21T15:27:17.859Z,3.70
2019-05-21T15:29:46.164Z,3.27
2019-05-21T15:32:14.037Z,3.10
2019-05-21T15:34:41.598Z,4.57
2019-05-21T15:37:10.281Z,4.50
2019-05-21T15:39:38.758Z,3.50
2019-05-21T15:42:08.078Z,3.60
2019-05-21T15:44:36.359Z,3.90
2019-05-21T15:47:04.957Z,4.47
2019-05-21T15:49:36.930Z,4.50
2019-05-21T15:52:04.040Z,4.30
2019-05-21T15:54:31.973Z,5.47
2019-05-21T15:57:00.556Z,4.30
2019-05-21T15:59:29.166Z,6.90
2019-05-21T16:01:57.894Z,5.20
2019-05-21T16:04:26.539Z,5.43
2019-05-21T16:06:54.554Z,4.70
2019-05-21T16:09:23.176Z,4.90
2019-05-21T16:11:51.702Z,4.50
2019-05-21T16:14:20.504Z,4.90
2019-05-21T16:16:48.828Z,5.67
2019-05-21T16:19:17.218Z,5.43
2019-05-21T16:21:45.535Z,4.80
2019-05-21T16:24:14.099Z,4.27
2019-05-21T16:26:42.878Z,5.27
2019-05-21T16:29:11.412Z,5.50
2019-05-21T16:31:40.079Z,4.63
2019-05-21T16:34:08.524Z,4.73
2019-05-21T16:36:36.833Z,4.67
2019-05-21T16:39:06.378Z,5.40
2019-05-21T16:41:44.318Z,5.43
2019-05-21T16:44:04.492Z,6.33
2019-05-21T16:46:32.763Z,4.53
2019-05-21T16:49:00.993Z,4.57
2019-05-21T16:51:29.840Z,4.57
2019-05-21T16:53:58.594Z,4.10
2019-05-21T16:56:27.406Z,5.10
2019-05-21T16:58:55.673Z,4.80
2019-05-21T17:01:24.274Z,5.17
2019-05-21T17:03:59.897Z,5.10
2019-05-21T17:06:22.528Z,4.87
2019-05-21T17:08:51.171Z,4.63
2019-05-21T17:11:19.538Z,4.63
2019-05-21T17:13:47.921Z,4.33
2019-05-21T17:16:16.284Z,6.53
2019-05-21T17:18:44.564Z,6.13
2019-05-21T17:21:12.886Z,6.00
2019-05-21T17:23:41.703Z,7.10
2019-05-21T17:26:10.233Z,5.00
2019-05-21T17:28:38.790Z,8.03
2019-05-21T17:31:08.798Z,7.00
2019-05-21T17:33:37.394Z,6.20
2019-05-21T17:36:06.154Z,5.83
2019-05-21T17:38:34.985Z,5.00
2019-05-21T17:41:03.350Z,4.97
2019-05-21T17:43:31.971Z,6.17
2019-05-21T17:46:00.366Z,4.17
2019-05-21T17:48:29.261Z,5.80
2019-05-21T17:50:57.785Z,4.70
2019-05-21T17:53:26.572Z,4.43
2019-05-21T17:55:55.239Z,4.40
2019-05-21T17:58:23.965Z,5.80
2019-05-21T18:00:56.105Z,5.43
2019-05-21T18:03:24.323Z,5.80
2019-05-21T18:05:54.533Z,6.07
2019-05-21T18:08:23.116Z,5.60
2019-05-21T18:10:51.984Z,6.33
2019-05-21T18:13:21.048Z,6.30
2019-05-21T18:15:49.775Z,7.03
2019-05-21T18:18:18.708Z,6.60
2019-05-21T18:20:47.111Z,6.60
2019-05-21T18:23:15.306Z,7.73
2019-05-21T18:25:43.723Z,8.93
2019-05-21T18:28:11.473Z,11.93
2019-05-21T18:30:39.613Z,8.57
2019-05-21T18:33:08.090Z,8.13
2019-05-21T18:35:36.365Z,8.87
2019-05-21T18:38:04.880Z,10.67
2019-05-21T18:40:33.670Z,10.87
2019-05-21T18:43:02.534Z,9.13
2019-05-21T18:45:31.174Z,7.30
2019-05-21T18:48:00.984Z,7.23
2019-05-21T18:50:36.402Z,7.80
2019-05-21T18:52:59.527Z,9.00
2019-05-21T18:55:27.494Z,7.57
2019-05-21T18:57:55.938Z,7.60
2019-05-21T19:00:25.178Z,8.70
2019-05-21T19:02:53.986Z,10.23
2019-05-21T19:05:23.214Z,9.80
2019-05-21T19:07:51.988Z,8.70
2019-05-21T19:10:22.514Z,7.83
2019-05-21T19:12:51.342Z,6.67
2019-05-21T19:15:20.058Z,9.10
2019-05-21T19:17:48.857Z,8.10
2019-05-21T19:20:18.728Z,6.43
2019-05-21T19:22:48.575Z,7.33
2019-05-21T19:25:17.367Z,5.90
2019-05-21T19:27:45.947Z,6.83
2019-05-21T19:30:14.611Z,6.57
2019-05-21T19:32:42.741Z,5.17
2019-05-21T19:35:11.611Z,5.70
2019-05-21T19:37:40.304Z,6.83
2019-05-21T19:40:08.993Z,3.87
2019-05-21T19:42:53.948Z,6.00
2019-05-21T19:45:10.744Z,4.33
2019-05-21T19:47:39.378Z,4.70
2019-05-21T19:50:07.862Z,4.27
2019-05-21T19:52:36.247Z,5.17
2019-05-21T19:55:04.038Z,5.00
2019-05-21T19:57:33.073Z,3.83
2019-05-21T20:00:01.113Z,3.83
2019-05-21T20:02:29.787Z,4.43
2019-05-21T20:04:58.523Z,3.97
2019-05-21T20:07:27.448Z,3.63
2019-05-21T20:09:55.555Z,2.90
2019-05-21T20:12:25.890Z,4.30
2019-05-21T20:14:54.464Z,3.50
2019-05-21T20:17:23.747Z,3.73
2019-05-21T20:19:52.765Z,4.47
2019-05-21T20:22:21.113Z,3.30
2019-05-21T20:24:49.133Z,2.43
2019-05-21T20:27:17.459Z,7.00
2019-05-21T20:29:45.865Z,4.00
2019-05-21T20:32:15.937Z,3.67
2019-05-21T20:34:44.848Z,4.00
2019-05-21T20:37:16.055Z,3.47
2019-05-21T20:39:44.613Z,3.30
2019-05-21T20:42:17.757Z,2.97
2019-05-21T20:44:46.488Z,3.30
2019-05-21T20:47:15.613Z,3.90
2019-05-21T20:49:45.449Z,3.43
2019-05-21T20:52:18.697Z,3.80
2019-05-21T20:54:46.734Z,3.50
2019-05-21T20:57:15.691Z,5.90
2019-05-21T20:59:44.429Z,4.90
2019-05-21T21:02:14.377Z,4.50
2019-05-21T21:04:43.083Z,2.77
2019-05-21T21:07:11.889Z,3.40
2019-05-21T21:09:40.305Z,2.73
2019-05-21T21:12:11.335Z,3.30
2019-05-21T21:14:40.494Z,3.73
2019-05-21T21:17:11.096Z,2.80
2019-05-21T21:19:40.274Z,3.70
2019-05-21T21:22:08.304Z,3.90
2019-05-21T21:24:37.783Z,3.37
2019-05-21T21:27:06.909Z,3.30
2019-05-21T21:29:35.700Z,3.60
2019-05-21T21:32:04.436Z,3.37
2019-05-21T21:34:33.458Z,3.50
2019-05-21T21:37:02.283Z,3.40
2019-05-21T21:39:30.693Z,3.30
2019-05-21T21:42:00.355Z,3.47
2019-05-21T21:44:34.063Z,3.63
2019-05-21T21:47:01.455Z,3.23
2019-05-21T21:49:30.154Z,3.23
2019-05-21T21:51:59.410Z,3.60
2019-05-21T21:54:28.384Z,3.73
2019-05-21T21:56:57.218Z,3.60
2019-05-21T21:59:25.090Z,4.20
2019-05-21T22:01:55.159Z,5.00
2019-05-21T22:04:29.928Z,13.63
2019-05-21T22:06:58.074Z,18.30
2019-05-21T22:09:34.480Z,24.53
2019-05-21T22:12:05.120Z,26.47
2019-05-21T22:14:49.186Z,25.30
2019-05-21T22:17:04.932Z,26.07
2019-05-21T22:19:33.502Z,23.60
2019-05-21T22:22:01.641Z,24.57
2019-05-21T22:24:29.977Z,24.00
2019-05-21T22:26:58.907Z,25.43
2019-05-21T22:29:27.276Z,26.43
2019-05-21T22:31:56.098Z,27.33
2019-05-21T22:34:25.335Z,27.73
2019-05-21T22:36:53.680Z,29.17
2019-05-21T22:39:26.523Z,28.27
2019-05-21T22:41:57.412Z,29.40
2019-05-21T22:44:25.373Z,28.27
2019-05-21T22:46:54.117Z,27.90
2019-05-21T22:49:22.247Z,27.83
2019-05-21T22:51:50.843Z,26.70
2019-05-21T22:54:18.813Z,25.80
2019-05-21T22:56:47.196Z,26.33
2019-05-21T22:59:15.838Z,26.47
2019-05-21T23:01:46.229Z,24.80
2019-05-21T23:04:15.274Z,24.53
2019-05-21T23:06:43.596Z,22.77
2019-05-21T23:09:12.085Z,26.23
2019-05-21T23:11:42.438Z,26.20
2019-05-21T23:14:10.522Z,24.67
2019-05-21T23:16:38.974Z,22.53
2019-05-21T23:19:11.362Z,24.97
2019-05-21T23:21:40.049Z,22.73
2019-05-21T23:24:12.717Z,21.97
2019-05-21T23:26:41.112Z,23.37
2019-05-21T23:29:09.829Z,22.17
2019-05-21T23:31:37.834Z,22.63
2019-05-21T23:34:06.202Z,23.30
2019-05-21T23:36:34.424Z,24.93
2019-05-21T23:39:08.679Z,26.17
2019-05-21T23:41:36.996Z,23.73
2019-05-21T23:44:06.161Z,24.57
2019-05-21T23:46:34.853Z,23.67
2019-05-21T23:49:02.750Z,24.27
2019-05-21T23:51:31.087Z,25.93
2019-05-21T23:54:00.209Z,22.90
2019-05-21T23:56:29.005Z,24.60
2019-05-21T23:58:57.612Z,23.73
